Helene — V7VF9 — position and weather

sailwx.info

Track history (hours):
 
Tides and Currents Weather Stations Pressure Air Temp Water Temp Dewpoint Dewpoint Depression Visibility Wind Speed Wind Dir Waves Ship Positions

Helene

Last reported at 2017-Jul-20 03:21 UTC. Time now 2017-Jul-28 12:59 UTC.
Position S 24°50' W 046°43'.
Warning: this ship's position is 8 days out of date.

Length 207 m; draft 8 m.

Type: Cargo ship. MMSI: 538006866.

Date/timePositionNaut miles runAvg speedWind from/ knotsBaromVisibWave heightAir tempDewpointWater temp
2017-Jul-20 03:21S 24°50' W 046°43'718.8
2017-Jul-20 03:00S 24°45' W 046°39'918.4
2017-Jul-20 02:31S 24°37' W 046°34'918.7
2017-Jul-20 02:01S 24°28' W 046°31'918.7
2017-Jul-20 01:30S 24°19' W 046°28'918.8
2017-Jul-20 01:00S 24°11' W 046°24'918.8
2017-Jul-20 00:30S 24°02' W 046°21'4 8.8
2017-Jul-20 00:00S 23°59' W 046°17'1 0.1
2017-Jul-19 17:50S 23°58' W 046°18'0 0.0
2017-Jul-19 13:00S 23°58' W 046°18'2 4.5
2017-Jul-19 12:30S 23°56' W 046°19'2 3.5
2017-Jul-19 11:54S 23°55' W 046°21'0 0.0
2017-Jul-19 11:30S 23°55' W 046°21'0 0.0
2017-Jul-19 10:45S 23°55' W 046°21'0 0.0
2017-Jul-19 10:30S 23°55' W 046°21'0 0.0
2017-Jul-19 09:57S 23°55' W 046°21'0 0.0
2017-Jul-19 09:30S 23°55' W 046°21'0 0.0
2017-Jul-19 08:54S 23°55' W 046°21'0 0.0
2017-Jul-19 08:24S 23°55' W 046°21'0 0.0
2017-Jul-19 08:00S 23°55' W 046°21'0 0.0
2017-Jul-19 07:30S 23°55' W 046°21'0 0.0
2017-Jul-19 06:36S 23°55' W 046°21'0 0.1
2017-Jul-19 06:30S 23°55' W 046°21'0 0.0
2017-Jul-19 05:57S 23°55' W 046°21'0 0.0
2017-Jul-19 05:27S 23°55' W 046°21'0 0.0
2017-Jul-19 04:57S 23°55' W 046°21'0 0.0
2017-Jul-19 03:44S 23°55' W 046°21'0 0.0
2017-Jul-19 03:26S 23°55' W 046°21'0 0.0
2017-Jul-19 02:53S 23°55' W 046°21'4 3.3
2017-Jul-19 01:47S 23°58' W 046°18'2 6.7
2017-Jul-19 01:30S 23°60' W 046°18'4 9.0
2017-Jul-19 01:00S 24°03' W 046°21'611.1
2017-Jul-19 00:30S 24°08' W 046°22'3 5.9
2017-Jul-19 00:00S 24°10' W 046°19'0 0.2
2017-Jul-18 23:26S 24°10' W 046°19'0 0.0
2017-Jul-18 22:53S 24°10' W 046°19'0 0.0
2017-Jul-18 22:29S 24°10' W 046°19'0 0.0
2017-Jul-18 21:50S 24°10' W 046°19'0 0.0
2017-Jul-18 21:23S 24°10' W 046°19'0 0.0
2017-Jul-18 20:59S 24°10' W 046°19'0 0.0
2017-Jul-18 20:29S 24°10' W 046°19'0 0.0
2017-Jul-18 19:59S 24°10' W 046°19'0 0.1
2017-Jul-18 19:26S 24°10' W 046°19'0 0.0
2017-Jul-18 18:59S 24°10' W 046°19'0 0.0
2017-Jul-18 18:26S 24°10' W 046°19'0 0.0
2017-Jul-18 17:59S 24°10' W 046°19'0 0.0
2017-Jul-18 17:26S 24°10' W 046°19'0 0.0
2017-Jul-18 16:59S 24°10' W 046°19'0 0.0
2017-Jul-18 16:29S 24°10' W 046°19'0 0.0
2017-Jul-18 15:59S 24°10' W 046°19'0 0.1
2017-Jul-18 15:26S 24°10' W 046°19'0 0.1
2017-Jul-18 14:56S 24°10' W 046°19'1 0.8
2017-Jul-18 14:00S 24°10' W 046°19'3 6.1
2017-Jul-18 13:30S 24°11' W 046°15'713.2
2017-Jul-18 13:00S 24°15' W 046°10'713.9
2017-Jul-18 12:30S 24°16' W 046°02'714.1
2017-Jul-18 12:00S 24°17' W 045°54'16013.5
2017-Jul-18 00:12S 23°32' W 043°07'1811.9
2017-Jul-17 22:43S 23°29' W 042°48'3314.8
2017-Jul-17 20:28S 23°19' W 042°13'817.4
2017-Jul-17 20:00S 23°16' W 042°05'1417.3
2017-Jul-17 19:12S 23°11' W 041°51'916.8
2017-Jul-17 18:40S 23°06' W 041°43'516.5
2017-Jul-17 18:24S 23°04' W 041°39'  
Track history (hours):
 
Tides and Currents Weather Stations Pressure Air Temp Water Temp Dewpoint Dewpoint Depression Visibility Wind Speed Wind Dir Waves Ship Positions

Helene

Last reported at 2017-Jul-20 03:21 UTC. Time now 2017-Jul-28 12:59 UTC.
Position S 24°50' W 046°43'.
Warning: this ship's position is 8 days out of date.

Length 207 m; draft 8 m.

Type: Cargo ship. MMSI: 538006866.

Date/timePositionNaut miles runAvg speedWind from/ knotsBaromVisibWave heightAir tempDewpointWater temp
2017-Jul-20 03:21S 24°50' W 046°43'718.8
2017-Jul-20 03:00S 24°45' W 046°39'918.4
2017-Jul-20 02:31S 24°37' W 046°34'918.7
2017-Jul-20 02:01S 24°28' W 046°31'918.7
2017-Jul-20 01:30S 24°19' W 046°28'918.8
2017-Jul-20 01:00S 24°11' W 046°24'918.8
2017-Jul-20 00:30S 24°02' W 046°21'4 8.8
2017-Jul-20 00:00S 23°59' W 046°17'1 0.1
2017-Jul-19 17:50S 23°58' W 046°18'0 0.0
2017-Jul-19 13:00S 23°58' W 046°18'2 4.5
2017-Jul-19 12:30S 23°56' W 046°19'2 3.5
2017-Jul-19 11:54S 23°55' W 046°21'0 0.0
2017-Jul-19 11:30S 23°55' W 046°21'0 0.0
2017-Jul-19 10:45S 23°55' W 046°21'0 0.0
2017-Jul-19 10:30S 23°55' W 046°21'0 0.0
2017-Jul-19 09:57S 23°55' W 046°21'0 0.0
2017-Jul-19 09:30S 23°55' W 046°21'0 0.0
2017-Jul-19 08:54S 23°55' W 046°21'0 0.0
2017-Jul-19 08:24S 23°55' W 046°21'0 0.0
2017-Jul-19 08:00S 23°55' W 046°21'0 0.0
2017-Jul-19 07:30S 23°55' W 046°21'0 0.0
2017-Jul-19 06:36S 23°55' W 046°21'0 0.1
2017-Jul-19 06:30S 23°55' W 046°21'0 0.0
2017-Jul-19 05:57S 23°55' W 046°21'0 0.0
2017-Jul-19 05:27S 23°55' W 046°21'0 0.0
2017-Jul-19 04:57S 23°55' W 046°21'0 0.0
2017-Jul-19 03:44S 23°55' W 046°21'0 0.0
2017-Jul-19 03:26S 23°55' W 046°21'0 0.0
2017-Jul-19 02:53S 23°55' W 046°21'4 3.3
2017-Jul-19 01:47S 23°58' W 046°18'2 6.7
2017-Jul-19 01:30S 23°60' W 046°18'4 9.0
2017-Jul-19 01:00S 24°03' W 046°21'611.1
2017-Jul-19 00:30S 24°08' W 046°22'3 5.9
2017-Jul-19 00:00S 24°10' W 046°19'0 0.2
2017-Jul-18 23:26S 24°10' W 046°19'0 0.0
2017-Jul-18 22:53S 24°10' W 046°19'0 0.0
2017-Jul-18 22:29S 24°10' W 046°19'0 0.0
2017-Jul-18 21:50S 24°10' W 046°19'0 0.0
2017-Jul-18 21:23S 24°10' W 046°19'0 0.0
2017-Jul-18 20:59S 24°10' W 046°19'0 0.0
2017-Jul-18 20:29S 24°10' W 046°19'0 0.0
2017-Jul-18 19:59S 24°10' W 046°19'0 0.1
2017-Jul-18 19:26S 24°10' W 046°19'0 0.0
2017-Jul-18 18:59S 24°10' W 046°19'0 0.0
2017-Jul-18 18:26S 24°10' W 046°19'0 0.0
2017-Jul-18 17:59S 24°10' W 046°19'0 0.0
2017-Jul-18 17:26S 24°10' W 046°19'0 0.0
2017-Jul-18 16:59S 24°10' W 046°19'0 0.0
2017-Jul-18 16:29S 24°10' W 046°19'0 0.0
2017-Jul-18 15:59S 24°10' W 046°19'0 0.1
2017-Jul-18 15:26S 24°10' W 046°19'0 0.1
2017-Jul-18 14:56S 24°10' W 046°19'1 0.8
2017-Jul-18 14:00S 24°10' W 046°19'3 6.1
2017-Jul-18 13:30S 24°11' W 046°15'713.2
2017-Jul-18 13:00S 24°15' W 046°10'713.9
2017-Jul-18 12:30S 24°16' W 046°02'714.1
2017-Jul-18 12:00S 24°17' W 045°54'16013.5
2017-Jul-18 00:12S 23°32' W 043°07'1811.9
2017-Jul-17 22:43S 23°29' W 042°48'3314.8
2017-Jul-17 20:28S 23°19' W 042°13'817.4
2017-Jul-17 20:00S 23°16' W 042°05'1417.3
2017-Jul-17 19:12S 23°11' W 041°51'916.8
2017-Jul-17 18:40S 23°06' W 041°43'516.5
2017-Jul-17 18:24S 23°04' W 041°39'  

Dump ship's entire track history